sensor_id;sensor_type;location;lat;lon;timestamp;P1;durP1;ratioP1;P2;durP2;ratioP2
61702;SDS011;47622;47.726;3.298;2023-06-24T00:02:16;8.88;;;4.47;;
61702;SDS011;47622;47.726;3.298;2023-06-24T00:04:42;5.75;;;4.43;;
61702;SDS011;47622;47.726;3.298;2023-06-24T00:07:07;9.15;;;4.32;;
61702;SDS011;47622;47.726;3.298;2023-06-24T00:09:33;8.02;;;4.35;;
61702;SDS011;47622;47.726;3.298;2023-06-24T00:11:59;6.20;;;4.50;;
61702;SDS011;47622;47.726;3.298;2023-06-24T00:14:25;7.15;;;4.20;;
61702;SDS011;47622;47.726;3.298;2023-06-24T00:16:52;6.32;;;3.97;;
61702;SDS011;47622;47.726;3.298;2023-06-24T00:19:22;5.32;;;3.88;;
61702;SDS011;47622;47.726;3.298;2023-06-24T00:21:49;7.07;;;4.63;;
61702;SDS011;47622;47.726;3.298;2023-06-24T00:24:17;9.02;;;4.28;;
61702;SDS011;47622;47.726;3.298;2023-06-24T00:26:45;5.60;;;4.22;;
61702;SDS011;47622;47.726;3.298;2023-06-24T00:29:12;8.10;;;4.55;;
61702;SDS011;47622;47.726;3.298;2023-06-24T00:31:37;6.70;;;4.50;;
61702;SDS011;47622;47.726;3.298;2023-06-24T00:34:03;7.90;;;4.10;;
61702;SDS011;47622;47.726;3.298;2023-06-24T00:36:29;6.93;;;4.15;;
61702;SDS011;47622;47.726;3.298;2023-06-24T00:38:57;9.43;;;4.13;;
61702;SDS011;47622;47.726;3.298;2023-06-24T00:41:28;6.40;;;4.25;;
61702;SDS011;47622;47.726;3.298;2023-06-24T00:43:55;5.53;;;3.72;;
61702;SDS011;47622;47.726;3.298;2023-06-24T00:46:22;4.72;;;3.38;;
61702;SDS011;47622;47.726;3.298;2023-06-24T00:48:55;4.40;;;3.50;;
61702;SDS011;47622;47.726;3.298;2023-06-24T00:51:21;8.90;;;4.38;;
61702;SDS011;47622;47.726;3.298;2023-06-24T00:53:51;5.43;;;3.83;;
61702;SDS011;47622;47.726;3.298;2023-06-24T00:56:21;6.72;;;4.22;;
61702;SDS011;47622;47.726;3.298;2023-06-24T00:58:50;8.57;;;4.00;;
61702;SDS011;47622;47.726;3.298;2023-06-24T01:01:17;7.07;;;4.32;;
61702;SDS011;47622;47.726;3.298;2023-06-24T01:03:44;10.90;;;4.20;;
61702;SDS011;47622;47.726;3.298;2023-06-24T01:06:10;8.80;;;4.25;;
61702;SDS011;47622;47.726;3.298;2023-06-24T01:08:36;6.13;;;4.03;;
61702;SDS011;47622;47.726;3.298;2023-06-24T01:11:02;8.73;;;4.20;;
61702;SDS011;47622;47.726;3.298;2023-06-24T01:13:28;5.70;;;4.25;;
61702;SDS011;47622;47.726;3.298;2023-06-24T01:15:54;5.68;;;3.83;;
61702;SDS011;47622;47.726;3.298;2023-06-24T01:20:55;4.57;;;3.80;;
61702;SDS011;47622;47.726;3.298;2023-06-24T01:23:42;5.95;;;4.00;;
61702;SDS011;47622;47.726;3.298;2023-06-24T01:29:09;9.27;;;4.15;;
61702;SDS011;47622;47.726;3.298;2023-06-24T01:34:48;4.47;;;3.72;;
61702;SDS011;47622;47.726;3.298;2023-06-24T01:37:28;5.35;;;4.05;;
61702;SDS011;47622;47.726;3.298;2023-06-24T01:40:20;6.57;;;3.78;;
61702;SDS011;47622;47.726;3.298;2023-06-24T01:42:53;6.85;;;4.03;;
61702;SDS011;47622;47.726;3.298;2023-06-24T01:45:23;7.25;;;4.20;;
61702;SDS011;47622;47.726;3.298;2023-06-24T01:48:02;8.43;;;4.03;;
61702;SDS011;47622;47.726;3.298;2023-06-24T01:51:06;6.95;;;4.57;;
61702;SDS011;47622;47.726;3.298;2023-06-24T01:53:36;6.40;;;4.07;;
61702;SDS011;47622;47.726;3.298;2023-06-24T01:56:07;7.13;;;4.40;;
61702;SDS011;47622;47.726;3.298;2023-06-24T01:58:35;6.60;;;4.60;;
61702;SDS011;47622;47.726;3.298;2023-06-24T02:01:03;8.27;;;4.40;;
61702;SDS011;47622;47.726;3.298;2023-06-24T02:03:29;5.00;;;3.70;;
61702;SDS011;47622;47.726;3.298;2023-06-24T02:05:57;6.00;;;4.20;;
61702;SDS011;47622;47.726;3.298;2023-06-24T02:08:25;9.63;;;4.35;;
61702;SDS011;47622;47.726;3.298;2023-06-24T02:10:55;6.10;;;4.20;;
61702;SDS011;47622;47.726;3.298;2023-06-24T02:13:23;7.53;;;4.20;;
61702;SDS011;47622;47.726;3.298;2023-06-24T02:15:50;5.90;;;4.13;;
61702;SDS011;47622;47.726;3.298;2023-06-24T02:18:17;5.88;;;4.05;;
61702;SDS011;47622;47.726;3.298;2023-06-24T02:20:45;7.25;;;4.47;;
61702;SDS011;47622;47.726;3.298;2023-06-24T02:23:13;8.15;;;4.45;;
61702;SDS011;47622;47.726;3.298;2023-06-24T02:25:39;8.00;;;4.50;;
61702;SDS011;47622;47.726;3.298;2023-06-24T02:28:05;5.88;;;4.07;;
61702;SDS011;47622;47.726;3.298;2023-06-24T02:30:33;7.30;;;4.05;;
61702;SDS011;47622;47.726;3.298;2023-06-24T02:33:01;5.57;;;3.97;;
61702;SDS011;47622;47.726;3.298;2023-06-24T02:35:27;9.05;;;4.38;;
61702;SDS011;47622;47.726;3.298;2023-06-24T02:37:53;7.00;;;4.20;;
61702;SDS011;47622;47.726;3.298;2023-06-24T02:40:19;7.20;;;3.80;;
61702;SDS011;47622;47.726;3.298;2023-06-24T02:42:45;6.15;;;4.03;;
61702;SDS011;47622;47.726;3.298;2023-06-24T02:45:11;6.22;;;3.85;;
61702;SDS011;47622;47.726;3.298;2023-06-24T02:47:37;10.25;;;4.53;;
61702;SDS011;47622;47.726;3.298;2023-06-24T02:50:04;6.40;;;3.88;;
61702;SDS011;47622;47.726;3.298;2023-06-24T02:52:32;5.28;;;3.78;;
61702;SDS011;47622;47.726;3.298;2023-06-24T02:55:02;6.10;;;3.90;;
61702;SDS011;47622;47.726;3.298;2023-06-24T02:57:28;7.43;;;3.83;;
61702;SDS011;47622;47.726;3.298;2023-06-24T02:59:53;7.18;;;3.90;;
61702;SDS011;47622;47.726;3.298;2023-06-24T03:02:19;6.80;;;4.18;;
61702;SDS011;47622;47.726;3.298;2023-06-24T03:04:45;7.55;;;3.88;;
61702;SDS011;47622;47.726;3.298;2023-06-24T03:07:13;9.05;;;4.03;;
61702;SDS011;47622;47.726;3.298;2023-06-24T03:09:39;5.03;;;3.85;;
61702;SDS011;47622;47.726;3.298;2023-06-24T03:12:05;8.45;;;4.30;;
61702;SDS011;47622;47.726;3.298;2023-06-24T03:14:31;5.47;;;3.90;;
61702;SDS011;47622;47.726;3.298;2023-06-24T03:16:57;6.72;;;3.90;;
61702;SDS011;47622;47.726;3.298;2023-06-24T03:19:22;9.43;;;3.97;;
61702;SDS011;47622;47.726;3.298;2023-06-24T03:21:48;10.68;;;4.10;;
61702;SDS011;47622;47.726;3.298;2023-06-24T03:24:13;6.28;;;4.00;;
61702;SDS011;47622;47.726;3.298;2023-06-24T03:26:39;5.93;;;4.00;;
61702;SDS011;47622;47.726;3.298;2023-06-24T03:29:05;8.30;;;4.32;;
61702;SDS011;47622;47.726;3.298;2023-06-24T03:31:32;9.07;;;3.97;;
61702;SDS011;47622;47.726;3.298;2023-06-24T03:33:58;6.60;;;4.18;;
61702;SDS011;47622;47.726;3.298;2023-06-24T03:36:23;9.07;;;4.25;;
61702;SDS011;47622;47.726;3.298;2023-06-24T03:38:49;5.72;;;3.72;;
61702;SDS011;47622;47.726;3.298;2023-06-24T03:41:15;6.28;;;4.10;;
61702;SDS011;47622;47.726;3.298;2023-06-24T03:43:41;5.85;;;4.03;;
61702;SDS011;47622;47.726;3.298;2023-06-24T03:46:07;7.22;;;4.72;;
61702;SDS011;47622;47.726;3.298;2023-06-24T03:48:34;5.97;;;4.18;;
61702;SDS011;47622;47.726;3.298;2023-06-24T03:51:00;5.43;;;4.00;;
61702;SDS011;47622;47.726;3.298;2023-06-24T03:53:26;6.45;;;4.32;;
61702;SDS011;47622;47.726;3.298;2023-06-24T03:55:51;6.90;;;3.50;;
61702;SDS011;47622;47.726;3.298;2023-06-24T03:58:17;5.07;;;4.00;;
61702;SDS011;47622;47.726;3.298;2023-06-24T04:00:43;5.75;;;3.60;;
61702;SDS011;47622;47.726;3.298;2023-06-24T04:03:09;5.22;;;3.60;;
61702;SDS011;47622;47.726;3.298;2023-06-24T04:05:35;5.28;;;3.55;;
61702;SDS011;47622;47.726;3.298;2023-06-24T04:08:01;5.95;;;3.38;;
61702;SDS011;47622;47.726;3.298;2023-06-24T04:10:31;7.72;;;3.95;;
61702;SDS011;47622;47.726;3.298;2023-06-24T04:12:58;5.20;;;3.80;;
61702;SDS011;47622;47.726;3.298;2023-06-24T04:15:24;5.32;;;3.90;;
61702;SDS011;47622;47.726;3.298;2023-06-24T04:17:49;7.30;;;3.90;;
61702;SDS011;47622;47.726;3.298;2023-06-24T04:20:15;5.78;;;3.60;;
61702;SDS011;47622;47.726;3.298;2023-06-24T04:22:41;7.00;;;3.42;;
61702;SDS011;47622;47.726;3.298;2023-06-24T04:25:07;5.32;;;3.70;;
61702;SDS011;47622;47.726;3.298;2023-06-24T04:27:33;6.13;;;3.67;;
61702;SDS011;47622;47.726;3.298;2023-06-24T04:30:00;4.70;;;3.35;;
61702;SDS011;47622;47.726;3.298;2023-06-24T04:32:26;5.85;;;3.60;;
61702;SDS011;47622;47.726;3.298;2023-06-24T04:34:52;5.93;;;3.67;;
61702;SDS011;47622;47.726;3.298;2023-06-24T04:37:18;6.43;;;4.13;;
61702;SDS011;47622;47.726;3.298;2023-06-24T04:39:44;8.57;;;3.65;;
61702;SDS011;47622;47.726;3.298;2023-06-24T04:42:11;6.60;;;3.97;;
61702;SDS011;47622;47.726;3.298;2023-06-24T04:44:37;5.43;;;3.65;;
61702;SDS011;47622;47.726;3.298;2023-06-24T04:47:02;6.10;;;3.95;;
61702;SDS011;47622;47.726;3.298;2023-06-24T04:49:28;10.88;;;4.10;;
61702;SDS011;47622;47.726;3.298;2023-06-24T04:51:54;7.20;;;4.43;;
61702;SDS011;47622;47.726;3.298;2023-06-24T04:54:19;7.88;;;4.10;;
61702;SDS011;47622;47.726;3.298;2023-06-24T04:56:45;7.05;;;3.83;;
61702;SDS011;47622;47.726;3.298;2023-06-24T04:59:13;5.43;;;3.63;;
61702;SDS011;47622;47.726;3.298;2023-06-24T05:01:39;8.20;;;4.07;;
61702;SDS011;47622;47.726;3.298;2023-06-24T05:04:04;7.65;;;4.50;;
61702;SDS011;47622;47.726;3.298;2023-06-24T05:06:30;5.88;;;3.65;;
61702;SDS011;47622;47.726;3.298;2023-06-24T05:08:56;6.85;;;4.18;;
61702;SDS011;47622;47.726;3.298;2023-06-24T05:11:21;4.95;;;3.63;;
61702;SDS011;47622;47.726;3.298;2023-06-24T05:13:47;6.80;;;3.72;;
61702;SDS011;47622;47.726;3.298;2023-06-24T05:16:13;7.45;;;4.20;;
61702;SDS011;47622;47.726;3.298;2023-06-24T05:18:39;5.65;;;3.92;;
61702;SDS011;47622;47.726;3.298;2023-06-24T05:21:04;6.80;;;4.00;;
61702;SDS011;47622;47.726;3.298;2023-06-24T05:23:30;4.97;;;3.70;;
61702;SDS011;47622;47.726;3.298;2023-06-24T05:25:55;5.53;;;4.18;;
61702;SDS011;47622;47.726;3.298;2023-06-24T05:28:21;5.80;;;3.70;;
61702;SDS011;47622;47.726;3.298;2023-06-24T05:30:48;5.95;;;3.90;;
61702;SDS011;47622;47.726;3.298;2023-06-24T05:33:13;6.60;;;4.05;;
61702;SDS011;47622;47.726;3.298;2023-06-24T05:35:40;4.35;;;3.67;;
61702;SDS011;47622;47.726;3.298;2023-06-24T05:38:08;11.00;;;3.78;;
61702;SDS011;47622;47.726;3.298;2023-06-24T05:40:34;6.82;;;3.95;;
61702;SDS011;47622;47.726;3.298;2023-06-24T05:42:59;7.22;;;3.85;;
61702;SDS011;47622;47.726;3.298;2023-06-24T05:45:28;5.60;;;3.60;;
61702;SDS011;47622;47.726;3.298;2023-06-24T05:47:53;5.47;;;4.10;;
61702;SDS011;47622;47.726;3.298;2023-06-24T05:50:19;6.72;;;3.78;;
61702;SDS011;47622;47.726;3.298;2023-06-24T05:52:44;4.25;;;3.28;;
61702;SDS011;47622;47.726;3.298;2023-06-24T05:55:10;6.25;;;3.60;;
61702;SDS011;47622;47.726;3.298;2023-06-24T05:57:38;6.30;;;3.80;;
61702;SDS011;47622;47.726;3.298;2023-06-24T06:00:05;8.02;;;4.10;;
61702;SDS011;47622;47.726;3.298;2023-06-24T06:02:31;7.47;;;3.75;;
61702;SDS011;47622;47.726;3.298;2023-06-24T06:04:56;5.95;;;3.85;;
61702;SDS011;47622;47.726;3.298;2023-06-24T06:07:22;4.82;;;3.80;;
61702;SDS011;47622;47.726;3.298;2023-06-24T06:09:47;5.50;;;3.53;;
61702;SDS011;47622;47.726;3.298;2023-06-24T06:12:13;6.45;;;3.50;;
61702;SDS011;47622;47.726;3.298;2023-06-24T06:14:39;6.32;;;3.90;;
61702;SDS011;47622;47.726;3.298;2023-06-24T06:17:04;4.72;;;3.53;;
61702;SDS011;47622;47.726;3.298;2023-06-24T06:19:30;4.50;;;3.22;;
61702;SDS011;47622;47.726;3.298;2023-06-24T06:21:55;4.43;;;3.28;;
61702;SDS011;47622;47.726;3.298;2023-06-24T06:24:21;4.65;;;3.33;;
61702;SDS011;47622;47.726;3.298;2023-06-24T06:26:48;5.75;;;3.20;;
61702;SDS011;47622;47.726;3.298;2023-06-24T06:29:13;8.90;;;3.60;;
61702;SDS011;47622;47.726;3.298;2023-06-24T06:31:39;5.18;;;3.10;;
61702;SDS011;47622;47.726;3.298;2023-06-24T06:34:04;5.25;;;3.30;;
61702;SDS011;47622;47.726;3.298;2023-06-24T06:36:30;7.95;;;3.28;;
61702;SDS011;47622;47.726;3.298;2023-06-24T06:38:57;4.07;;;2.78;;
61702;SDS011;47622;47.726;3.298;2023-06-24T06:41:23;3.42;;;2.47;;
61702;SDS011;47622;47.726;3.298;2023-06-24T06:43:52;3.40;;;3.05;;
61702;SDS011;47622;47.726;3.298;2023-06-24T06:46:18;4.75;;;3.00;;
61702;SDS011;47622;47.726;3.298;2023-06-24T06:48:44;3.30;;;2.33;;
61702;SDS011;47622;47.726;3.298;2023-06-24T06:51:10;5.55;;;3.35;;
61702;SDS011;47622;47.726;3.298;2023-06-24T06:53:35;5.88;;;4.20;;
61702;SDS011;47622;47.726;3.298;2023-06-24T06:56:01;5.75;;;3.85;;
61702;SDS011;47622;47.726;3.298;2023-06-24T06:58:27;5.72;;;3.28;;
61702;SDS011;47622;47.726;3.298;2023-06-24T07:00:52;5.90;;;3.83;;
61702;SDS011;47622;47.726;3.298;2023-06-24T07:03:18;5.57;;;3.53;;
61702;SDS011;47622;47.726;3.298;2023-06-24T07:05:43;5.15;;;3.28;;
61702;SDS011;47622;47.726;3.298;2023-06-24T07:08:09;4.30;;;3.10;;
61702;SDS011;47622;47.726;3.298;2023-06-24T07:10:34;5.78;;;2.83;;
61702;SDS011;47622;47.726;3.298;2023-06-24T07:13:00;3.88;;;3.28;;
61702;SDS011;47622;47.726;3.298;2023-06-24T07:15:25;4.15;;;3.00;;
61702;SDS011;47622;47.726;3.298;2023-06-24T07:17:52;5.80;;;3.10;;
61702;SDS011;47622;47.726;3.298;2023-06-24T07:20:18;4.20;;;2.53;;
61702;SDS011;47622;47.726;3.298;2023-06-24T07:22:44;4.00;;;2.47;;
61702;SDS011;47622;47.726;3.298;2023-06-24T07:25:10;4.53;;;2.35;;
61702;SDS011;47622;47.726;3.298;2023-06-24T07:27:36;3.97;;;2.72;;
61702;SDS011;47622;47.726;3.298;2023-06-24T07:30:03;4.85;;;2.90;;
61702;SDS011;47622;47.726;3.298;2023-06-24T07:32:30;3.45;;;2.60;;
61702;SDS011;47622;47.726;3.298;2023-06-24T07:37:21;4.82;;;2.70;;
61702;SDS011;47622;47.726;3.298;2023-06-24T07:39:47;4.40;;;2.60;;
61702;SDS011;47622;47.726;3.298;2023-06-24T07:42:13;4.10;;;2.55;;
61702;SDS011;47622;47.726;3.298;2023-06-24T07:44:44;3.90;;;2.35;;
61702;SDS011;47622;47.726;3.298;2023-06-24T07:49:36;7.37;;;2.30;;
61702;SDS011;47622;47.726;3.298;2023-06-24T07:52:01;2.60;;;2.40;;
61702;SDS011;47622;47.726;3.298;2023-06-24T07:54:27;3.05;;;2.05;;
61702;SDS011;47622;47.726;3.298;2023-06-24T07:56:52;3.60;;;2.28;;
61702;SDS011;47622;47.726;3.298;2023-06-24T07:59:19;2.70;;;2.20;;
61702;SDS011;47622;47.726;3.298;2023-06-24T08:01:45;2.50;;;2.10;;
61702;SDS011;47622;47.726;3.298;2023-06-24T08:04:10;2.35;;;2.08;;
61702;SDS011;47622;47.726;3.298;2023-06-24T08:06:36;3.25;;;2.60;;
61702;SDS011;47622;47.726;3.298;2023-06-24T08:09:01;2.17;;;1.98;;
61702;SDS011;47622;47.726;3.298;2023-06-24T08:11:27;3.95;;;2.20;;
61702;SDS011;47622;47.726;3.298;2023-06-24T08:16:18;3.63;;;1.90;;
61702;SDS011;47622;47.726;3.298;2023-06-24T08:18:45;4.10;;;2.22;;
61702;SDS011;47622;47.726;3.298;2023-06-24T08:21:11;5.50;;;2.40;;
61702;SDS011;47622;47.726;3.298;2023-06-24T08:23:37;3.05;;;2.35;;
61702;SDS011;47622;47.726;3.298;2023-06-24T08:26:02;4.10;;;2.40;;
61702;SDS011;47622;47.726;3.298;2023-06-24T08:28:28;5.70;;;2.50;;
61702;SDS011;47622;47.726;3.298;2023-06-24T08:30:55;6.38;;;2.45;;
61702;SDS011;47622;47.726;3.298;2023-06-24T08:33:20;4.53;;;2.85;;
61702;SDS011;47622;47.726;3.298;2023-06-24T08:35:46;3.03;;;2.58;;
61702;SDS011;47622;47.726;3.298;2023-06-24T08:38:11;3.25;;;2.60;;
61702;SDS011;47622;47.726;3.298;2023-06-24T08:40:37;3.30;;;2.70;;
61702;SDS011;47622;47.726;3.298;2023-06-24T08:43:05;3.13;;;2.83;;
61702;SDS011;47622;47.726;3.298;2023-06-24T08:45:31;3.85;;;2.50;;
61702;SDS011;47622;47.726;3.298;2023-06-24T08:47:57;3.97;;;2.50;;
61702;SDS011;47622;47.726;3.298;2023-06-24T08:50:23;3.30;;;2.80;;
61702;SDS011;47622;47.726;3.298;2023-06-24T08:52:56;3.53;;;2.53;;
61702;SDS011;47622;47.726;3.298;2023-06-24T08:55:27;4.90;;;3.30;;
61702;SDS011;47622;47.726;3.298;2023-06-24T09:05:12;4.13;;;2.92;;
61702;SDS011;47622;47.726;3.298;2023-06-24T09:07:38;4.90;;;3.10;;
61702;SDS011;47622;47.726;3.298;2023-06-24T09:10:03;4.50;;;2.85;;
61702;SDS011;47622;47.726;3.298;2023-06-24T09:12:31;3.42;;;2.72;;
61702;SDS011;47622;47.726;3.298;2023-06-24T09:14:58;2.88;;;2.58;;
61702;SDS011;47622;47.726;3.298;2023-06-24T09:17:23;3.35;;;2.80;;
61702;SDS011;47622;47.726;3.298;2023-06-24T09:19:49;5.03;;;3.00;;
61702;SDS011;47622;47.726;3.298;2023-06-24T09:22:16;4.25;;;2.80;;
61702;SDS011;47622;47.726;3.298;2023-06-24T09:24:44;3.72;;;2.90;;
61702;SDS011;47622;47.726;3.298;2023-06-24T09:27:14;4.65;;;3.00;;
61702;SDS011;47622;47.726;3.298;2023-06-24T09:29:41;4.10;;;2.70;;
61702;SDS011;47622;47.726;3.298;2023-06-24T09:32:08;4.85;;;2.75;;
61702;SDS011;47622;47.726;3.298;2023-06-24T09:34:34;4.07;;;2.80;;
61702;SDS011;47622;47.726;3.298;2023-06-24T09:37:00;3.55;;;2.50;;
61702;SDS011;47622;47.726;3.298;2023-06-24T09:39:27;2.97;;;2.67;;
61702;SDS011;47622;47.726;3.298;2023-06-24T09:41:57;3.20;;;2.60;;
61702;SDS011;47622;47.726;3.298;2023-06-24T09:44:23;3.30;;;2.80;;
61702;SDS011;47622;47.726;3.298;2023-06-24T09:46:50;3.88;;;2.67;;
61702;SDS011;47622;47.726;3.298;2023-06-24T09:49:16;3.25;;;2.60;;
61702;SDS011;47622;47.726;3.298;2023-06-24T09:51:45;7.13;;;2.55;;
61702;SDS011;47622;47.726;3.298;2023-06-24T09:54:12;3.95;;;2.80;;
61702;SDS011;47622;47.726;3.298;2023-06-24T09:56:40;2.95;;;2.50;;
61702;SDS011;47622;47.726;3.298;2023-06-24T09:59:12;4.20;;;2.90;;
61702;SDS011;47622;47.726;3.298;2023-06-24T10:01:39;4.05;;;2.60;;
61702;SDS011;47622;47.726;3.298;2023-06-24T10:04:06;4.03;;;2.90;;
61702;SDS011;47622;47.726;3.298;2023-06-24T10:06:33;3.13;;;2.70;;
61702;SDS011;47622;47.726;3.298;2023-06-24T10:09:00;4.00;;;2.45;;
61702;SDS011;47622;47.726;3.298;2023-06-24T10:11:26;3.10;;;2.80;;
61702;SDS011;47622;47.726;3.298;2023-06-24T10:13:52;4.00;;;2.65;;
61702;SDS011;47622;47.726;3.298;2023-06-24T10:16:19;3.15;;;2.35;;
61702;SDS011;47622;47.726;3.298;2023-06-24T10:18:46;3.45;;;2.65;;
61702;SDS011;47622;47.726;3.298;2023-06-24T10:21:12;3.53;;;2.85;;
61702;SDS011;47622;47.726;3.298;2023-06-24T10:26:27;4.22;;;2.78;;
61702;SDS011;47622;47.726;3.298;2023-06-24T10:47:33;3.00;;;2.63;;
61702;SDS011;47622;47.726;3.298;2023-06-24T10:50:01;5.07;;;2.45;;
61702;SDS011;47622;47.726;3.298;2023-06-24T10:52:27;3.13;;;2.72;;
61702;SDS011;47622;47.726;3.298;2023-06-24T10:54:54;6.00;;;2.80;;
61702;SDS011;47622;47.726;3.298;2023-06-24T10:57:27;3.80;;;2.25;;
61702;SDS011;47622;47.726;3.298;2023-06-24T10:59:55;3.08;;;2.40;;
61702;SDS011;47622;47.726;3.298;2023-06-24T11:02:22;3.40;;;2.55;;
61702;SDS011;47622;47.726;3.298;2023-06-24T11:04:50;4.07;;;2.53;;
61702;SDS011;47622;47.726;3.298;2023-06-24T11:07:18;4.05;;;2.60;;
61702;SDS011;47622;47.726;3.298;2023-06-24T11:09:48;5.15;;;2.80;;
61702;SDS011;47622;47.726;3.298;2023-06-24T11:12:14;4.10;;;2.92;;
61702;SDS011;47622;47.726;3.298;2023-06-24T11:14:40;2.80;;;2.53;;
61702;SDS011;47622;47.726;3.298;2023-06-24T11:17:06;4.07;;;2.65;;
61702;SDS011;47622;47.726;3.298;2023-06-24T11:19:33;4.10;;;2.72;;
61702;SDS011;47622;47.726;3.298;2023-06-24T11:22:04;3.67;;;2.80;;
61702;SDS011;47622;47.726;3.298;2023-06-24T11:24:32;5.35;;;2.72;;
61702;SDS011;47622;47.726;3.298;2023-06-24T11:26:58;3.75;;;2.83;;
61702;SDS011;47622;47.726;3.298;2023-06-24T11:29:24;4.22;;;2.88;;
61702;SDS011;47622;47.726;3.298;2023-06-24T11:31:53;4.28;;;2.70;;
61702;SDS011;47622;47.726;3.298;2023-06-24T11:34:19;3.20;;;2.63;;
61702;SDS011;47622;47.726;3.298;2023-06-24T11:36:44;5.43;;;2.58;;
61702;SDS011;47622;47.726;3.298;2023-06-24T11:39:20;3.10;;;2.67;;
61702;SDS011;47622;47.726;3.298;2023-06-24T11:41:50;3.13;;;2.53;;
61702;SDS011;47622;47.726;3.298;2023-06-24T11:44:18;5.63;;;2.70;;
61702;SDS011;47622;47.726;3.298;2023-06-24T11:46:44;4.22;;;2.53;;
61702;SDS011;47622;47.726;3.298;2023-06-24T11:49:10;4.28;;;2.53;;
61702;SDS011;47622;47.726;3.298;2023-06-24T11:51:35;3.45;;;2.50;;
61702;SDS011;47622;47.726;3.298;2023-06-24T11:54:03;4.65;;;2.58;;
61702;SDS011;47622;47.726;3.298;2023-06-24T11:56:39;3.45;;;2.38;;
61702;SDS011;47622;47.726;3.298;2023-06-24T11:59:07;2.83;;;2.38;;
61702;SDS011;47622;47.726;3.298;2023-06-24T12:01:42;3.03;;;2.40;;
61702;SDS011;47622;47.726;3.298;2023-06-24T12:04:11;2.67;;;2.40;;
61702;SDS011;47622;47.726;3.298;2023-06-24T12:06:40;2.80;;;2.30;;
61702;SDS011;47622;47.726;3.298;2023-06-24T12:09:08;5.43;;;2.58;;
61702;SDS011;47622;47.726;3.298;2023-06-24T12:11:34;3.38;;;2.50;;
61702;SDS011;47622;47.726;3.298;2023-06-24T12:14:00;4.30;;;2.60;;
61702;SDS011;47622;47.726;3.298;2023-06-24T12:16:26;3.88;;;2.47;;
61702;SDS011;47622;47.726;3.298;2023-06-24T12:18:52;3.03;;;2.70;;
61702;SDS011;47622;47.726;3.298;2023-06-24T12:21:18;4.60;;;2.10;;
61702;SDS011;47622;47.726;3.298;2023-06-24T12:23:44;5.70;;;2.75;;
61702;SDS011;47622;47.726;3.298;2023-06-24T12:26:10;3.35;;;2.05;;
61702;SDS011;47622;47.726;3.298;2023-06-24T12:28:36;4.05;;;2.38;;
61702;SDS011;47622;47.726;3.298;2023-06-24T12:31:01;3.83;;;2.88;;
61702;SDS011;47622;47.726;3.298;2023-06-24T12:33:27;3.60;;;2.65;;
61702;SDS011;47622;47.726;3.298;2023-06-24T12:35:53;3.53;;;2.45;;
61702;SDS011;47622;47.726;3.298;2023-06-24T12:38:19;3.58;;;2.50;;
61702;SDS011;47622;47.726;3.298;2023-06-24T12:40:44;3.85;;;2.63;;
61702;SDS011;47622;47.726;3.298;2023-06-24T12:43:10;3.92;;;2.35;;
61702;SDS011;47622;47.726;3.298;2023-06-24T12:45:37;3.45;;;2.28;;
61702;SDS011;47622;47.726;3.298;2023-06-24T12:48:03;2.95;;;2.65;;
61702;SDS011;47622;47.726;3.298;2023-06-24T12:50:29;2.95;;;2.42;;
61702;SDS011;47622;47.726;3.298;2023-06-24T12:52:57;2.88;;;2.40;;
61702;SDS011;47622;47.726;3.298;2023-06-24T12:55:23;4.20;;;2.60;;
61702;SDS011;47622;47.726;3.298;2023-06-24T12:57:50;4.03;;;2.40;;
61702;SDS011;47622;47.726;3.298;2023-06-24T13:00:18;3.40;;;2.40;;
61702;SDS011;47622;47.726;3.298;2023-06-24T13:02:45;4.97;;;2.60;;
61702;SDS011;47622;47.726;3.298;2023-06-24T13:05:11;3.10;;;2.40;;
61702;SDS011;47622;47.726;3.298;2023-06-24T13:07:38;3.95;;;2.70;;
61702;SDS011;47622;47.726;3.298;2023-06-24T13:10:05;3.13;;;2.50;;
61702;SDS011;47622;47.726;3.298;2023-06-24T13:12:34;3.85;;;2.50;;
61702;SDS011;47622;47.726;3.298;2023-06-24T13:15:01;3.35;;;2.33;;
61702;SDS011;47622;47.726;3.298;2023-06-24T13:17:29;2.85;;;2.42;;
61702;SDS011;47622;47.726;3.298;2023-06-24T13:19:55;3.63;;;2.50;;
61702;SDS011;47622;47.726;3.298;2023-06-24T13:22:21;4.07;;;2.35;;
61702;SDS011;47622;47.726;3.298;2023-06-24T13:24:47;3.13;;;2.67;;
61702;SDS011;47622;47.726;3.298;2023-06-24T13:27:12;3.88;;;2.60;;
61702;SDS011;47622;47.726;3.298;2023-06-24T13:29:38;4.50;;;2.75;;
61702;SDS011;47622;47.726;3.298;2023-06-24T13:32:04;3.47;;;2.50;;
61702;SDS011;47622;47.726;3.298;2023-06-24T13:34:29;3.28;;;2.72;;
61702;SDS011;47622;47.726;3.298;2023-06-24T13:36:55;3.85;;;2.30;;
61702;SDS011;47622;47.726;3.298;2023-06-24T13:39:21;6.05;;;2.65;;
61702;SDS011;47622;47.726;3.298;2023-06-24T13:41:49;3.95;;;2.83;;
61702;SDS011;47622;47.726;3.298;2023-06-24T13:44:15;3.55;;;2.30;;
61702;SDS011;47622;47.726;3.298;2023-06-24T13:46:41;2.72;;;2.50;;
61702;SDS011;47622;47.726;3.298;2023-06-24T13:49:07;3.20;;;2.50;;
61702;SDS011;47622;47.726;3.298;2023-06-24T13:51:33;4.45;;;2.80;;
61702;SDS011;47622;47.726;3.298;2023-06-24T13:53:59;3.33;;;2.80;;
61702;SDS011;47622;47.726;3.298;2023-06-24T13:56:25;3.03;;;2.70;;
61702;SDS011;47622;47.726;3.298;2023-06-24T13:58:51;3.33;;;2.70;;
61702;SDS011;47622;47.726;3.298;2023-06-24T14:01:18;3.70;;;2.65;;
61702;SDS011;47622;47.726;3.298;2023-06-24T14:03:44;3.22;;;2.40;;
61702;SDS011;47622;47.726;3.298;2023-06-24T14:06:13;2.90;;;2.42;;
61702;SDS011;47622;47.726;3.298;2023-06-24T14:08:42;3.67;;;2.72;;
61702;SDS011;47622;47.726;3.298;2023-06-24T14:11:08;4.85;;;2.55;;
61702;SDS011;47622;47.726;3.298;2023-06-24T14:13:34;5.30;;;2.45;;
61702;SDS011;47622;47.726;3.298;2023-06-24T14:16:01;2.95;;;2.30;;
61702;SDS011;47622;47.726;3.298;2023-06-24T14:18:28;5.15;;;2.72;;
61702;SDS011;47622;47.726;3.298;2023-06-24T14:20:57;3.60;;;2.45;;
61702;SDS011;47622;47.726;3.298;2023-06-24T14:23:24;4.90;;;2.60;;
61702;SDS011;47622;47.726;3.298;2023-06-24T14:25:53;3.10;;;2.53;;
61702;SDS011;47622;47.726;3.298;2023-06-24T14:28:20;3.58;;;2.60;;
61702;SDS011;47622;47.726;3.298;2023-06-24T14:30:46;2.95;;;2.55;;
61702;SDS011;47622;47.726;3.298;2023-06-24T14:33:12;4.15;;;2.45;;
61702;SDS011;47622;47.726;3.298;2023-06-24T14:35:40;3.28;;;2.72;;
61702;SDS011;47622;47.726;3.298;2023-06-24T14:38:06;2.83;;;2.40;;
61702;SDS011;47622;47.726;3.298;2023-06-24T14:40:32;2.65;;;2.10;;
61702;SDS011;47622;47.726;3.298;2023-06-24T14:42:59;4.80;;;2.67;;
61702;SDS011;47622;47.726;3.298;2023-06-24T14:45:25;3.40;;;2.60;;
61702;SDS011;47622;47.726;3.298;2023-06-24T14:47:51;4.72;;;2.75;;
61702;SDS011;47622;47.726;3.298;2023-06-24T14:50:17;4.60;;;3.00;;
61702;SDS011;47622;47.726;3.298;2023-06-24T14:52:43;3.95;;;2.92;;
61702;SDS011;47622;47.726;3.298;2023-06-24T14:55:09;3.70;;;2.50;;
61702;SDS011;47622;47.726;3.298;2023-06-24T14:57:35;3.95;;;2.85;;
61702;SDS011;47622;47.726;3.298;2023-06-24T15:00:01;4.20;;;2.80;;
61702;SDS011;47622;47.726;3.298;2023-06-24T15:02:26;3.80;;;2.70;;
61702;SDS011;47622;47.726;3.298;2023-06-24T15:04:52;4.68;;;2.97;;
61702;SDS011;47622;47.726;3.298;2023-06-24T15:07:18;3.72;;;2.67;;
61702;SDS011;47622;47.726;3.298;2023-06-24T15:09:45;3.17;;;2.35;;
61702;SDS011;47622;47.726;3.298;2023-06-24T15:12:10;7.55;;;2.67;;
61702;SDS011;47622;47.726;3.298;2023-06-24T15:14:36;3.90;;;2.83;;
61702;SDS011;47622;47.726;3.298;2023-06-24T15:17:02;8.27;;;2.65;;
61702;SDS011;47622;47.726;3.298;2023-06-24T15:19:28;5.95;;;2.80;;
61702;SDS011;47622;47.726;3.298;2023-06-24T15:21:54;3.80;;;2.72;;
61702;SDS011;47622;47.726;3.298;2023-06-24T15:24:19;3.00;;;2.55;;
61702;SDS011;47622;47.726;3.298;2023-06-24T15:26:45;4.25;;;2.50;;
61702;SDS011;47622;47.726;3.298;2023-06-24T15:29:10;3.45;;;2.50;;
61702;SDS011;47622;47.726;3.298;2023-06-24T15:31:36;3.25;;;2.60;;